Time;durP1;ratioP1;P1;durP2;ratioP2;P2;SDS_P1;SDS_P2;PMS_P1;PMS_P2;Temp;Humidity;BMP_temperature;BMP_pressure;BME280_temperature;BME280_humidity;BME280_pressure;Samples;Min_cycle;Max_cycle;Signal;HPM_P1;HPM_P2
2021/03/04 00:00:34;;;;;;;13.30;6.77;;;5.40;77.90;;;;;;5051937;28;20218;-82
2021/03/04 00:03:00;;;;;;;11.10;6.80;;;5.40;77.70;;;;;;5043176;28;20202;-82
2021/03/04 00:05:27;;;;;;;12.83;6.63;;;5.40;78.30;;;;;;5042972;28;20217;-81
2021/03/04 00:07:53;;;;;;;12.37;6.23;;;5.40;78.10;;;;;;5041059;28;20649;-83
2021/03/04 00:10:20;;;;;;;11.00;6.93;;;5.40;79.40;;;;;;5039147;28;20235;-83
2021/03/04 00:12:49;;;;;;;13.30;6.83;;;5.40;78.70;;;;;;5043535;28;20193;-82
2021/03/04 00:15:17;;;;;;;10.90;7.03;;;5.40;80.10;;;;;;5045159;28;20279;-83
2021/03/04 00:17:45;;;;;;;12.13;7.33;;;5.50;78.80;;;;;;5037362;28;20249;-83
2021/03/04 00:20:13;;;;;;;10.27;7.50;;;5.50;77.80;;;;;;5035304;28;20625;-83
2021/03/04 00:22:39;;;;;;;18.60;8.40;;;5.60;77.50;;;;;;5036707;28;20276;-83
2021/03/04 00:25:07;;;;;;;12.03;7.50;;;5.70;77.40;;;;;;5032776;28;20223;-84
2021/03/04 00:27:33;;;;;;;12.43;7.20;;;5.70;77.70;;;;;;5033482;28;20225;-83
2021/03/04 00:30:01;;;;;;;11.40;7.23;;;5.70;77.80;;;;;;5038427;28;20224;-84
2021/03/04 00:32:27;;;;;;;12.43;7.37;;;5.70;76.70;;;;;;5043192;28;20193;-83
2021/03/04 00:34:53;;;;;;;8.67;6.60;;;5.70;76.00;;;;;;5039969;28;20222;-83
2021/03/04 00:37:20;;;;;;;12.23;7.47;;;5.60;76.30;;;;;;5038911;28;20199;-82
2021/03/04 00:39:46;;;;;;;9.30;6.67;;;5.70;75.50;;;;;;5042766;28;20225;-82
2021/03/04 00:42:12;;;;;;;12.80;8.10;;;5.60;75.90;;;;;;5035913;28;20226;-82
2021/03/04 00:44:38;;;;;;;12.77;5.97;;;5.60;76.30;;;;;;5043387;28;20225;-82
2021/03/04 00:47:06;;;;;;;10.93;6.40;;;5.60;75.60;;;;;;5040789;28;20584;-82
2021/03/04 00:49:32;;;;;;;10.00;6.50;;;5.60;75.50;;;;;;5039414;28;20237;-82
2021/03/04 00:51:59;;;;;;;13.13;7.07;;;5.60;75.20;;;;;;5044617;28;20190;-82
2021/03/04 00:54:25;;;;;;;9.60;7.17;;;5.60;76.10;;;;;;5035810;28;20198;-82
2021/03/04 00:56:51;;;;;;;13.57;6.77;;;5.60;77.00;;;;;;5042567;28;20566;-83
2021/03/04 00:59:18;;;;;;;11.63;7.40;;;5.60;77.30;;;;;;5046879;28;20201;-83
2021/03/04 01:01:44;;;;;;;9.87;6.77;;;5.60;77.80;;;;;;5048400;28;20210;-82
2021/03/04 01:04:11;;;;;;;10.17;6.67;;;5.50;76.80;;;;;;5037486;28;20198;-84
2021/03/04 01:06:38;;;;;;;10.43;5.60;;;5.50;77.00;;;;;;5051263;28;20233;-83
2021/03/04 01:09:05;;;;;;;8.53;6.23;;;5.50;75.90;;;;;;5039571;28;20198;-82
2021/03/04 01:11:32;;;;;;;8.67;6.20;;;5.50;75.20;;;;;;5035016;28;20617;-84
2021/03/04 01:13:58;;;;;;;10.57;6.07;;;5.50;75.60;;;;;;5047250;28;20198;-83
2021/03/04 01:16:24;;;;;;;8.17;6.17;;;5.50;76.60;;;;;;5045158;28;20218;-83
2021/03/04 01:18:51;;;;;;;9.17;5.90;;;5.50;76.80;;;;;;5042974;28;20202;-83
2021/03/04 01:21:18;;;;;;;8.57;5.43;;;5.50;77.80;;;;;;5046189;28;20299;-82
2021/03/04 01:23:44;;;;;;;9.87;5.90;;;5.50;77.80;;;;;;5037023;28;20222;-83
2021/03/04 01:26:11;;;;;;;10.03;5.73;;;5.50;78.30;;;;;;5039673;28;20641;-82
2021/03/04 01:28:38;;;;;;;9.33;5.80;;;5.50;78.60;;;;;;5040231;28;20244;-82
2021/03/04 01:31:04;;;;;;;9.23;5.73;;;5.50;78.40;;;;;;5041731;28;20587;-83
2021/03/04 01:33:31;;;;;;;11.07;5.47;;;5.50;77.30;;;;;;5048702;28;20220;-82
2021/03/04 01:35:57;;;;;;;14.13;5.43;;;5.50;77.30;;;;;;5043237;28;20312;-83
2021/03/04 01:38:24;;;;;;;10.27;6.33;;;5.50;78.40;;;;;;5041155;28;20276;-85
2021/03/04 01:40:51;;;;;;;7.43;5.23;;;5.50;78.00;;;;;;5039710;28;20461;-82
2021/03/04 01:43:17;;;;;;;7.93;5.40;;;5.50;76.40;;;;;;5046744;28;20221;-82
2021/03/04 01:45:44;;;;;;;9.23;5.30;;;5.50;75.90;;;;;;5040723;28;20271;-82
2021/03/04 01:48:10;;;;;;;8.40;4.87;;;5.50;76.70;;;;;;5049211;28;20200;-84
2021/03/04 01:50:37;;;;;;;8.90;5.13;;;5.50;77.30;;;;;;5051208;28;20225;-82
2021/03/04 01:53:03;;;;;;;7.57;4.90;;;5.60;77.20;;;;;;5050963;28;20621;-82
2021/03/04 01:55:31;;;;;;;9.33;5.20;;;5.50;77.20;;;;;;5036922;28;20223;-83
2021/03/04 01:57:57;;;;;;;8.77;5.23;;;5.50;77.50;;;;;;5050029;28;20225;-82
2021/03/04 02:00:23;;;;;;;8.43;6.03;;;5.50;78.40;;;;;;5045255;28;20224;-81
2021/03/04 02:02:50;;;;;;;7.80;4.60;;;5.40;78.30;;;;;;5042321;28;20203;-83
2021/03/04 02:05:18;;;;;;;6.27;5.10;;;5.30;79.00;;;;;;5047159;28;20316;-82
2021/03/04 02:07:58;;;;;;;7.53;4.87;;;5.30;78.90;;;;;;5051041;28;20228;-84
2021/03/04 02:10:36;;;;;;;7.20;4.90;;;5.40;78.20;;;;;;5040040;28;20228;-83
2021/03/04 02:13:13;;;;;;;9.53;5.10;;;5.40;78.00;;;;;;5047175;28;20216;-83
2021/03/04 02:15:50;;;;;;;9.30;5.17;;;5.50;77.50;;;;;;5042533;28;20232;-82
2021/03/04 02:18:19;;;;;;;8.03;4.90;;;5.50;78.30;;;;;;5043157;28;20574;-82
2021/03/04 02:20:57;;;;;;;6.73;4.60;;;5.60;77.80;;;;;;5041851;28;20234;-82
2021/03/04 02:23:39;;;;;;;7.37;5.10;;;5.60;77.20;;;;;;5041851;28;20336;-82
2021/03/04 02:26:22;;;;;;;8.93;4.53;;;5.50;77.40;;;;;;5042105;28;20283;-83
2021/03/04 02:28:55;;;;;;;6.43;4.50;;;5.50;77.00;;;;;;5044184;28;20267;-82
2021/03/04 02:31:22;;;;;;;10.27;4.60;;;5.50;76.10;;;;;;5050843;28;20666;-82
2021/03/04 02:33:50;;;;;;;6.77;4.33;;;5.50;75.20;;;;;;5041780;28;20665;-82
2021/03/04 02:36:18;;;;;;;6.50;5.13;;;5.50;75.10;;;;;;5040579;28;20236;-83
2021/03/04 02:38:45;;;;;;;10.90;4.10;;;5.60;75.00;;;;;;5044489;28;20222;-83
2021/03/04 02:41:12;;;;;;;7.63;4.47;;;5.60;74.60;;;;;;5051325;28;20214;-82
2021/03/04 02:43:40;;;;;;;6.37;4.33;;;5.60;73.80;;;;;;5044317;28;20548;-85
2021/03/04 02:46:10;;;;;;;5.93;4.27;;;5.70;75.20;;;;;;5038403;28;20242;-82
2021/03/04 02:48:37;;;;;;;7.33;4.30;;;5.70;74.60;;;;;;5042069;28;20199;-84
2021/03/04 02:51:05;;;;;;;6.07;4.23;;;5.70;73.50;;;;;;5046105;28;20213;-82
2021/03/04 02:53:33;;;;;;;8.50;3.97;;;5.70;74.40;;;;;;5048532;28;20198;-82
2021/03/04 02:56:00;;;;;;;9.63;4.17;;;5.70;73.90;;;;;;5042635;28;20625;-83
2021/03/04 02:58:27;;;;;;;5.80;4.50;;;5.60;76.60;;;;;;5044695;28;20198;-82
2021/03/04 03:00:54;;;;;;;6.00;4.20;;;5.70;76.40;;;;;;5048112;28;20271;-83
2021/03/04 03:03:23;;;;;;;5.73;4.70;;;5.60;73.90;;;;;;5057086;28;20200;-82
2021/03/04 03:05:50;;;;;;;6.60;4.37;;;5.60;73.70;;;;;;5051337;28;20316;-83
2021/03/04 03:08:18;;;;;;;5.77;4.10;;;5.60;75.40;;;;;;5038887;28;20293;-83
2021/03/04 03:10:46;;;;;;;5.93;4.30;;;5.60;77.80;;;;;;5043300;28;20230;-84
2021/03/04 03:13:14;;;;;;;8.77;4.43;;;5.60;75.60;;;;;;5041706;28;20194;-83
2021/03/04 03:15:40;;;;;;;8.27;4.50;;;5.70;72.60;;;;;;5049364;28;20804;-82
2021/03/04 03:18:07;;;;;;;5.20;4.10;;;5.70;70.40;;;;;;5044280;28;20223;-82
2021/03/04 03:20:34;;;;;;;7.43;4.40;;;5.80;70.60;;;;;;5041483;28;20301;-82
2021/03/04 03:23:01;;;;;;;6.53;4.00;;;5.80;74.70;;;;;;5044065;28;20248;-83
2021/03/04 03:25:28;;;;;;;6.03;4.10;;;5.80;74.00;;;;;;5037771;28;20236;-82
2021/03/04 03:27:56;;;;;;;5.87;4.60;;;5.80;73.20;;;;;;5036283;28;20233;-83
2021/03/04 03:30:26;;;;;;;5.87;4.37;;;5.80;75.90;;;;;;5042573;28;20228;-82
2021/03/04 03:32:57;;;;;;;7.83;4.60;;;5.70;72.00;;;;;;5046802;28;20680;-85
2021/03/04 03:35:24;;;;;;;5.13;3.93;;;5.80;70.60;;;;;;5041372;28;20236;-82
2021/03/04 03:37:54;;;;;;;6.60;4.70;;;5.80;70.60;;;;;;5047796;28;20201;-82
2021/03/04 03:40:21;;;;;;;7.33;4.20;;;5.80;72.90;;;;;;5041693;28;20235;-82
2021/03/04 03:42:48;;;;;;;7.37;4.43;;;5.70;73.50;;;;;;5040841;28;20202;-83
2021/03/04 03:45:18;;;;;;;6.67;4.10;;;5.80;71.90;;;;;;5043535;28;20283;-82
2021/03/04 03:47:46;;;;;;;6.67;4.27;;;5.80;70.60;;;;;;5043417;28;20677;-85
2021/03/04 03:50:15;;;;;;;6.17;4.43;;;5.70;70.50;;;;;;5045858;28;20279;-84
2021/03/04 03:52:43;;;;;;;6.27;4.23;;;5.80;70.60;;;;;;5043395;28;20198;-86
2021/03/04 03:55:11;;;;;;;8.93;4.37;;;5.80;72.10;;;;;;5041517;28;20627;-82
2021/03/04 03:57:40;;;;;;;6.83;4.10;;;5.80;70.60;;;;;;5040668;28;20221;-83
2021/03/04 04:00:08;;;;;;;6.43;4.57;;;5.80;70.70;;;;;;5038291;28;20706;-84
2021/03/04 04:02:35;;;;;;;6.47;4.40;;;5.80;72.80;;;;;;5042702;28;20195;-83
2021/03/04 04:05:02;;;;;;;7.37;4.57;;;5.80;73.00;;;;;;5042263;28;20223;-84
2021/03/04 04:07:29;;;;;;;5.07;4.00;;;5.80;70.70;;;;;;5045181;28;20218;-84
2021/03/04 04:09:57;;;;;;;7.97;4.70;;;5.90;70.70;;;;;;5045325;28;20226;-83
2021/03/04 04:12:24;;;;;;;7.73;4.43;;;5.90;70.70;;;;;;5040655;28;20921;-84
2021/03/04 04:14:50;;;;;;;11.70;4.43;;;5.90;73.60;;;;;;5037777;28;20225;-84
2021/03/04 04:17:17;;;;;;;5.77;4.30;;;5.90;74.70;;;;;;5048638;28;20206;-84
2021/03/04 04:19:44;;;;;;;10.20;5.50;;;5.90;73.30;;;;;;5041803;28;20236;-85
2021/03/04 04:22:11;;;;;;;11.77;5.07;;;6.00;70.90;;;;;;5042344;28;20234;-84
2021/03/04 04:24:38;;;;;;;10.90;4.70;;;6.00;70.80;;;;;;5041363;28;20240;-85
2021/03/04 04:27:05;;;;;;;7.70;4.73;;;6.00;70.70;;;;;;5041673;28;20232;-85
2021/03/04 04:29:32;;;;;;;9.43;5.40;;;6.00;70.80;;;;;;5036813;28;20248;-84
2021/03/04 04:32:00;;;;;;;11.17;4.43;;;6.00;70.70;;;;;;5046703;28;20611;-84
2021/03/04 04:34:26;;;;;;;13.97;5.17;;;6.10;70.90;;;;;;5035945;28;20342;-84
2021/03/04 04:36:52;;;;;;;10.77;4.97;;;6.10;72.30;;;;;;5042532;28;20204;-84
2021/03/04 04:39:18;;;;;;;7.93;4.30;;;6.10;72.30;;;;;;5042487;28;20198;-85
2021/03/04 04:41:45;;;;;;;5.70;4.30;;;6.10;70.90;;;;;;5046584;28;20198;-84
2021/03/04 04:44:11;;;;;;;5.47;4.00;;;6.10;70.90;;;;;;5036661;28;20197;-84
2021/03/04 04:46:38;;;;;;;10.90;4.57;;;6.10;70.90;;;;;;5035934;28;20755;-84
2021/03/04 04:49:05;;;;;;;8.13;4.23;;;6.10;72.30;;;;;;5038886;28;20208;-84
2021/03/04 04:51:34;;;;;;;7.40;4.30;;;6.20;71.00;;;;;;5039924;28;20245;-84
2021/03/04 04:54:00;;;;;;;6.63;4.40;;;6.10;72.30;;;;;;5033824;28;20217;-84
2021/03/04 04:56:26;;;;;;;8.47;4.47;;;6.20;71.00;;;;;;5041757;28;20672;-84
2021/03/04 04:58:53;;;;;;;9.67;4.37;;;6.20;71.00;;;;;;5042774;28;20198;-84
2021/03/04 05:01:19;;;;;;;7.87;4.40;;;6.10;72.30;;;;;;5035419;28;20602;-83
2021/03/04 05:03:46;;;;;;;7.53;4.30;;;6.10;73.00;;;;;;5045702;28;20208;-84
2021/03/04 05:06:12;;;;;;;6.63;4.13;;;6.20;71.00;;;;;;5043664;28;20616;-84
2021/03/04 05:08:39;;;;;;;8.27;4.40;;;6.10;69.40;;;;;;5048118;28;20198;-83
2021/03/04 05:11:05;;;;;;;7.50;3.97;;;6.10;70.90;;;;;;5044946;28;20226;-83
2021/03/04 05:13:31;;;;;;;6.43;4.30;;;6.10;70.90;;;;;;5043553;28;20198;-84
2021/03/04 05:15:57;;;;;;;6.80;4.00;;;6.10;72.30;;;;;;5038538;28;20630;-85
2021/03/04 05:18:24;;;;;;;6.77;4.30;;;6.10;70.90;;;;;;5041817;28;20202;-84
2021/03/04 05:20:51;;;;;;;6.87;4.13;;;6.20;71.00;;;;;;5040755;28;20269;-83
2021/03/04 05:23:17;;;;;;;7.63;3.90;;;6.20;68.40;;;;;;5046307;28;20229;-85
2021/03/04 05:25:44;;;;;;;6.30;4.40;;;6.20;67.50;;;;;;5041314;28;20214;-84
2021/03/04 05:28:10;;;;;;;5.77;3.90;;;6.20;71.00;;;;;;5045734;28;21474;-84
2021/03/04 05:30:37;;;;;;;7.07;4.37;;;6.20;71.00;;;;;;5043294;28;20602;-86
2021/03/04 05:33:03;;;;;;;8.07;4.00;;;6.10;70.90;;;;;;5037198;28;20227;-84
2021/03/04 05:35:30;;;;;;;6.43;4.47;;;6.00;70.70;;;;;;5038479;28;20689;-85
2021/03/04 05:37:57;;;;;;;6.47;4.10;;;5.90;70.70;;;;;;5041532;28;20202;-83
2021/03/04 05:40:23;;;;;;;10.50;4.50;;;5.90;70.70;;;;;;5041127;28;20580;-84
2021/03/04 05:42:50;;;;;;;6.47;4.40;;;5.90;70.70;;;;;;5044069;28;20585;-84
2021/03/04 05:45:19;;;;;;;6.23;4.00;;;6.00;70.70;;;;;;5042972;28;20570;-84
2021/03/04 05:47:47;;;;;;;5.80;3.90;;;6.00;70.80;;;;;;5045305;28;20222;-84
2021/03/04 05:50:14;;;;;;;9.23;4.40;;;6.10;70.90;;;;;;5047057;28;20230;-84
2021/03/04 05:52:47;;;;;;;13.03;6.47;;;6.00;70.10;;;;;;5047404;28;20200;-84
2021/03/04 05:55:16;;;;;;;10.80;5.20;;;6.60;90.00;;;;;;5042800;28;20219;-85
2021/03/04 05:57:44;;;;;;;10.60;5.03;;;7.60;72.40;;;;;;5047468;28;20613;-85
2021/03/04 06:00:12;;;;;;;8.87;4.67;;;7.90;69.00;;;;;;5042682;28;20229;-85
2021/03/04 06:02:41;;;;;;;6.43;4.07;;;7.90;62.20;;;;;;5045093;28;20671;-85
2021/03/04 06:05:09;;;;;;;11.83;4.33;;;7.90;63.60;;;;;;5045738;28;20222;-84
2021/03/04 06:07:35;;;;;;;7.27;4.97;;;7.90;57.90;;;;;;5050194;28;20235;-85
2021/03/04 06:10:02;;;;;;;10.30;4.80;;;9.00;72.70;;;;;;5046185;28;20231;-84
2021/03/04 06:12:30;;;;;;;12.87;5.07;;;9.80;63.30;;;;;;5038698;28;20198;-84
2021/03/04 06:14:57;;;;;;;19.52;5.30;;;10.30;75.90;;;;;;5046064;28;20242;-85
2021/03/04 06:17:23;;;;;;;11.40;4.57;;;11.00;48.80;;;;;;5052071;28;20212;-86
2021/03/04 06:19:52;;;;;;;13.23;4.50;;;10.10;50.10;;;;;;5051436;28;20246;-86
2021/03/04 06:22:26;;;;;;;11.15;4.57;;;11.30;56.30;;;;;;5054195;28;20234;-85
2021/03/04 06:24:54;;;;;;;13.35;4.75;;;10.70;47.40;;;;;;5043737;28;20228;-88
2021/03/04 06:27:28;;;;;;;6.75;3.75;;;10.10;48.50;;;;;;5054191;28;20293;-83
2021/03/04 06:29:56;;;;;;;8.55;4.40;;;10.90;53.20;;;;;;5046299;28;20252;-84
2021/03/04 06:32:24;;;;;;;10.32;5.05;;;10.70;45.10;;;;;;5044820;28;20202;-83
2021/03/04 06:35:09;;;;;;;10.52;5.90;;;10.00;47.80;;;;;;5042389;28;20731;-83
2021/03/04 06:37:38;;;;;;;10.38;4.85;;;9.70;49.80;;;;;;5051221;28;20200;-83
2021/03/04 06:40:06;;;;;;;10.85;6.30;;;10.70;52.30;;;;;;5047364;28;20275;-83
2021/03/04 06:42:42;;;;;;;10.77;5.72;;;10.90;43.20;;;;;;5050397;28;20334;-82
2021/03/04 06:45:22;;;;;;;11.80;4.90;;;10.50;50.40;;;;;;5041753;28;20703;-90
2021/03/04 06:47:49;;;;;;;9.85;4.57;;;11.70;48.30;;;;;;5027491;28;20225;-86
2021/03/04 06:50:22;;;;;;;16.13;5.85;;;12.10;46.70;;;;;;5055465;28;20235;-90
2021/03/04 06:52:49;;;;;;;12.68;5.20;;;12.60;45.30;;;;;;5052100;28;20198;-88
2021/03/04 06:55:19;;;;;;;18.40;6.13;;;12.80;44.20;;;;;;5054771;28;20232;-87
2021/03/04 06:57:59;;;;;;;13.48;5.38;;;12.40;44.30;;;;;;5049080;28;20729;-88
2021/03/04 07:00:27;;;;;;;9.32;4.28;;;11.80;42.20;;;;;;5046320;28;20364;-88
2021/03/04 07:02:54;;;;;;;10.02;4.20;;;10.80;44.10;;;;;;5051315;28;20229;-87
2021/03/04 07:05:23;;;;;;;9.63;4.38;;;10.30;44.00;;;;;;5051784;28;20693;-90
2021/03/04 07:07:52;;;;;;;9.07;4.22;;;9.70;48.10;;;;;;5048909;28;20230;-88
2021/03/04 07:10:19;;;;;;;7.93;4.00;;;9.10;52.30;;;;;;5048943;28;20228;-88
2021/03/04 07:12:47;;;;;;;9.25;4.15;;;8.80;50.90;;;;;;5048080;28;20224;-87
2021/03/04 07:15:14;;;;;;;10.70;4.50;;;8.60;50.60;;;;;;5039344;28;20241;-88
2021/03/04 07:17:46;;;;;;;7.03;3.70;;;8.30;50.70;;;;;;5050778;28;20212;-86
2021/03/04 07:20:17;;;;;;;11.82;4.03;;;8.10;55.90;;;;;;5045107;28;20268;-85
2021/03/04 07:22:45;;;;;;;13.27;4.20;;;8.10;53.20;;;;;;5046717;28;20292;-87
2021/03/04 07:25:13;;;;;;;17.67;4.33;;;8.10;53.80;;;;;;5042825;28;20319;-86
2021/03/04 07:27:40;;;;;;;18.03;3.73;;;8.00;54.30;;;;;;5052351;28;20222;-86
2021/03/04 07:30:10;;;;;;;12.53;4.40;;;8.10;54.40;;;;;;5047854;28;20221;-88
2021/03/04 07:32:37;;;;;;;10.43;4.00;;;8.10;55.80;;;;;;5050919;28;20689;-87
2021/03/04 07:35:11;;;;;;;8.80;4.03;;;8.10;56.80;;;;;;5039308;28;20218;-86
2021/03/04 07:37:44;;;;;;;11.98;4.20;;;8.10;55.40;;;;;;5042079;28;20537;-87
2021/03/04 07:40:14;;;;;;;9.45;3.75;;;8.20;54.90;;;;;;5050860;28;20232;-86
2021/03/04 07:42:41;;;;;;;9.33;3.90;;;8.30;55.00;;;;;;5051482;28;20241;-86
2021/03/04 07:45:14;;;;;;;7.32;4.50;;;8.40;57.60;;;;;;5044105;28;20718;-87
2021/03/04 07:47:41;;;;;;;12.02;4.70;;;8.50;56.00;;;;;;5046745;28;20222;-87
2021/03/04 07:50:20;;;;;;;11.73;4.53;;;8.70;55.20;;;;;;5043399;28;20234;-88
2021/03/04 07:52:47;;;;;;;15.40;5.03;;;8.70;55.60;;;;;;5048577;28;20261;-86
2021/03/04 07:55:24;;;;;;;10.70;4.07;;;8.80;52.50;;;;;;5050458;28;20226;-87
2021/03/04 07:57:50;;;;;;;13.60;4.15;;;8.80;52.90;;;;;;5052783;28;20240;-86
2021/03/04 08:00:17;;;;;;;8.43;3.88;;;8.90;52.30;;;;;;5047332;28;20225;-86
2021/03/04 08:02:49;;;;;;;9.27;4.50;;;8.90;53.70;;;;;;5040305;28;20281;-88
2021/03/04 08:05:30;;;;;;;12.13;4.05;;;9.00;54.70;;;;;;5043641;28;20634;-90
2021/03/04 08:07:57;;;;;;;15.98;3.88;;;9.20;52.70;;;;;;5040137;28;20210;-88
2021/03/04 08:10:25;;;;;;;21.33;4.63;;;9.20;49.80;;;;;;5051193;28;20253;-90
2021/03/04 08:12:52;;;;;;;16.30;4.97;;;9.40;47.90;;;;;;5051210;28;20206;-89
2021/03/04 08:15:20;;;;;;;14.85;3.83;;;9.40;49.80;;;;;;5047890;28;20246;-88
2021/03/04 08:17:47;;;;;;;10.25;3.95;;;9.40;48.40;;;;;;5055745;28;20206;-88
2021/03/04 08:20:18;;;;;;;12.02;3.85;;;9.50;47.90;;;;;;5053164;28;20222;-87
2021/03/04 08:25:32;;;;;;;12.07;3.50;;;9.70;51.00;;;;;;5054203;28;20264;-88
2021/03/04 08:28:01;;;;;;;8.85;2.90;;;9.90;48.40;;;;;;5060516;28;20267;-90
2021/03/04 08:30:28;;;;;;;12.25;3.25;;;9.80;47.50;;;;;;5047604;28;20258;-87
2021/03/04 08:32:55;;;;;;;13.23;3.47;;;9.80;45.70;;;;;;5054112;28;20679;-89
2021/03/04 08:35:23;;;;;;;10.60;3.50;;;9.80;46.30;;;;;;5053339;28;20221;-88
2021/03/04 08:38:26;;;;;;;5.43;3.10;;;9.90;46.20;;;;;;5061841;28;20197;-88
2021/03/04 08:41:05;;;;;;;8.88;3.15;;;10.10;44.50;;;;;;5062415;28;20225;-88
2021/03/04 08:44:16;;;;;;;15.70;3.42;;;10.20;41.00;;;;;;5065209;28;20204;-89
2021/03/04 08:47:14;;;;;;;10.80;3.47;;;10.40;40.50;;;;;;5062005;28;20641;-89
2021/03/04 08:49:45;;;;;;;14.90;3.88;;;10.70;39.70;;;;;;5048584;28;20234;-88
2021/03/04 08:52:37;;;;;;;9.00;3.55;;;10.80;39.30;;;;;;5045010;28;20649;-88
2021/03/04 08:55:09;;;;;;;9.98;3.75;;;11.00;38.20;;;;;;5061040;28;20317;-90
2021/03/04 08:57:36;;;;;;;4.93;3.47;;;11.40;36.50;;;;;;5056502;28;20231;-89
2021/03/04 09:00:09;;;;;;;6.30;4.00;;;11.60;35.90;;;;;;5045439;28;20209;-92
2021/03/04 09:02:36;;;;;;;6.90;3.90;;;11.90;36.10;;;;;;5043544;28;20198;-90
2021/03/04 09:05:03;;;;;;;9.95;4.55;;;12.10;35.10;;;;;;5050098;28;20217;-91
2021/03/04 09:07:31;;;;;;;9.73;4.25;;;12.10;34.70;;;;;;5059110;28;20581;-90
2021/03/04 09:10:03;;;;;;;7.85;4.32;;;12.20;35.00;;;;;;5061750;28;20225;-89
2021/03/04 09:12:30;;;;;;;10.77;4.47;;;12.30;35.80;;;;;;5050439;28;20258;-88
2021/03/04 09:15:00;;;;;;;13.00;4.75;;;12.60;33.60;;;;;;5060382;28;20320;-88
2021/03/04 09:17:26;;;;;;;9.27;4.60;;;12.50;33.20;;;;;;5051215;28;20666;-88
2021/03/04 09:19:55;;;;;;;8.32;4.90;;;12.50;32.30;;;;;;5054206;28;20237;-89
2021/03/04 09:22:22;;;;;;;9.60;4.95;;;12.30;32.50;;;;;;5048127;28;20677;-88
2021/03/04 09:24:49;;;;;;;7.95;5.07;;;12.20;34.80;;;;;;5053958;28;20259;-90
2021/03/04 09:27:20;;;;;;;9.70;5.22;;;12.20;33.20;;;;;;5053620;28;20348;-89
2021/03/04 09:29:47;;;;;;;9.98;4.75;;;12.20;33.40;;;;;;5053680;28;20688;-90
2021/03/04 09:32:14;;;;;;;8.98;5.32;;;12.30;33.00;;;;;;5056410;28;20545;-89
2021/03/04 09:34:42;;;;;;;11.30;5.00;;;12.40;33.50;;;;;;5055790;28;20240;-89
2021/03/04 09:37:11;;;;;;;11.32;5.38;;;12.50;33.40;;;;;;5056543;28;20201;-88
2021/03/04 09:39:42;;;;;;;9.35;5.28;;;12.60;32.60;;;;;;5056345;28;20228;-89
2021/03/04 09:42:09;;;;;;;21.55;5.90;;;12.50;33.20;;;;;;5056890;28;20546;-89
2021/03/04 09:44:52;;;;;;;8.20;4.93;;;12.50;32.90;;;;;;5055710;28;20198;-89
2021/03/04 09:47:20;;;;;;;11.05;5.55;;;12.60;32.50;;;;;;5050140;28;20610;-88
2021/03/04 09:49:48;;;;;;;11.82;5.45;;;12.70;32.60;;;;;;5053134;28;20718;-89
2021/03/04 09:52:22;;;;;;;10.18;5.68;;;12.70;32.70;;;;;;5058581;28;20196;-89
2021/03/04 09:54:49;;;;;;;10.57;4.72;;;12.80;33.30;;;;;;5063180;28;20232;-89
2021/03/04 09:58:14;;;;;;;8.60;5.03;;;12.70;33.20;;;;;;5057814;28;20343;-88
2021/03/04 10:00:45;;;;;;;10.27;5.30;;;12.90;32.60;;;;;;5062690;28;20303;-89
2021/03/04 10:07:13;;;;;;;10.93;4.85;;;13.50;30.30;;;;;;5059460;28;20383;-88
2021/03/04 10:09:50;;;;;;;7.90;5.00;;;13.50;29.30;;;;;;5064957;28;20224;-91
2021/03/04 10:12:16;;;;;;;8.15;4.70;;;13.40;29.60;;;;;;5067308;28;20400;-90
2021/03/04 10:14:45;;;;;;;9.18;5.32;;;13.30;29.10;;;;;;5057077;28;20245;-90
2021/03/04 10:17:30;;;;;;;9.93;5.07;;;13.20;30.80;;;;;;5058146;28;20278;-89
2021/03/04 10:20:06;;;;;;;9.95;5.07;;;13.20;31.10;;;;;;5052927;28;20878;-88
2021/03/04 10:22:39;;;;;;;9.07;4.80;;;13.40;30.40;;;;;;5053309;28;20239;-88
2021/03/04 10:25:12;;;;;;;10.18;5.75;;;13.70;29.30;;;;;;5047709;28;20260;-89
2021/03/04 10:27:39;;;;;;;8.27;4.60;;;13.70;31.20;;;;;;5052154;28;20222;-89
2021/03/04 10:30:10;;;;;;;7.72;5.00;;;13.90;28.70;;;;;;5046021;28;20252;-89
2021/03/04 10:32:42;;;;;;;7.72;4.50;;;13.80;29.40;;;;;;5052368;28;20213;-88
2021/03/04 10:35:11;;;;;;;7.75;4.75;;;13.70;29.30;;;;;;5049565;28;20225;-87
2021/03/04 10:37:38;;;;;;;8.13;5.07;;;13.60;30.90;;;;;;5041726;28;20278;-89
2021/03/04 10:40:06;;;;;;;10.07;4.68;;;13.60;30.60;;;;;;5042796;28;20218;-88
2021/03/04 10:42:33;;;;;;;6.93;4.47;;;13.60;29.20;;;;;;5052163;28;20212;-88
2021/03/04 10:45:00;;;;;;;6.40;4.70;;;13.70;28.70;;;;;;5043070;28;20228;-92
2021/03/04 10:47:32;;;;;;;9.52;4.82;;;13.60;29.50;;;;;;5055366;28;20229;-87
2021/03/04 10:50:00;;;;;;;13.60;4.65;;;13.30;30.60;;;;;;5049792;28;20579;-87
2021/03/04 10:52:26;;;;;;;8.02;4.50;;;13.50;27.80;;;;;;5049252;28;20205;-88
2021/03/04 10:54:53;;;;;;;9.60;4.70;;;13.60;28.70;;;;;;5057262;28;20242;-91
2021/03/04 10:57:20;;;;;;;9.88;5.10;;;13.70;29.10;;;;;;5050298;28;20206;-88
2021/03/04 10:59:46;;;;;;;9.90;5.10;;;13.90;29.30;;;;;;5043555;28;20225;-90
2021/03/04 11:02:13;;;;;;;8.65;5.35;;;14.30;27.20;;;;;;5045432;28;20226;-89
2021/03/04 11:04:39;;;;;;;13.93;6.20;;;14.70;27.60;;;;;;5037437;28;20388;-90
2021/03/04 11:07:06;;;;;;;9.70;5.50;;;15.00;27.80;;;;;;5040587;28;20268;-89
2021/03/04 11:09:33;;;;;;;8.00;5.68;;;15.60;25.40;;;;;;5036262;28;20217;-90
2021/03/04 11:12:01;;;;;;;12.48;6.15;;;15.60;27.20;;;;;;5039087;28;20202;-89
2021/03/04 11:14:27;;;;;;;8.50;6.03;;;15.80;26.20;;;;;;5042762;28;20645;-89
2021/03/04 11:16:54;;;;;;;10.52;6.90;;;16.40;25.00;;;;;;5037522;28;20206;-87
2021/03/04 11:19:20;;;;;;;9.77;6.75;;;16.90;25.20;;;;;;5045383;28;20206;-86
2021/03/04 11:21:47;;;;;;;11.52;6.80;;;16.80;23.70;;;;;;5047985;28;20205;-89
2021/03/04 11:24:14;;;;;;;17.42;7.60;;;16.40;23.90;;;;;;5036271;28;20244;-89
2021/03/04 11:26:41;;;;;;;17.83;7.13;;;16.10;25.50;;;;;;5035250;28;20234;-89
2021/03/04 11:29:08;;;;;;;16.23;7.70;;;15.50;26.30;;;;;;5039719;28;20209;-88
2021/03/04 11:31:36;;;;;;;11.40;6.85;;;15.40;28.20;;;;;;5049110;28;20224;-88
2021/03/04 11:34:02;;;;;;;9.00;6.60;;;15.20;27.90;;;;;;5046468;28;20204;-89
2021/03/04 11:36:29;;;;;;;11.73;6.78;;;15.10;27.90;;;;;;5048263;28;20214;-89
2021/03/04 11:38:57;;;;;;;11.30;6.93;;;15.20;28.00;;;;;;5060276;28;20739;-88
2021/03/04 11:41:24;;;;;;;13.77;6.63;;;15.00;29.00;;;;;;5049099;28;20609;-87
2021/03/04 11:43:51;;;;;;;20.42;7.20;;;15.10;28.00;;;;;;5049236;28;20293;-87
2021/03/04 11:46:22;;;;;;;11.30;6.85;;;15.20;28.00;;;;;;5045719;28;21033;-88
2021/03/04 11:48:49;;;;;;;11.18;6.45;;;15.40;28.20;;;;;;5058751;28;20217;-88
2021/03/04 11:51:16;;;;;;;17.45;7.78;;;15.30;29.20;;;;;;5050850;28;20233;-87
2021/03/04 11:53:42;;;;;;;12.68;6.60;;;15.30;28.10;;;;;;5051755;28;20313;-89
2021/03/04 11:56:10;;;;;;;13.48;7.05;;;15.40;28.20;;;;;;5053228;28;20226;-88
2021/03/04 11:58:41;;;;;;;12.90;7.03;;;15.10;27.90;;;;;;5056228;28;20669;-87
2021/03/04 12:01:08;;;;;;;12.13;6.97;;;15.10;28.00;;;;;;5049572;28;20740;-87
2021/03/04 12:03:46;;;;;;;15.15;6.75;;;15.10;28.50;;;;;;5063129;28;20229;-89
2021/03/04 12:06:23;;;;;;;13.23;6.22;;;15.20;28.00;;;;;;5044765;28;20232;-88
2021/03/04 12:09:17;;;;;;;12.02;6.60;;;15.20;28.00;;;;;;5063167;28;20225;-89
2021/03/04 12:12:04;;;;;;;12.93;7.32;;;15.20;28.00;;;;;;5036064;28;20206;-90
2021/03/04 12:14:52;;;;;;;15.77;7.43;;;15.10;28.80;;;;;;5058917;28;20256;-90
2021/03/04 12:21:12;;;;;;;16.05;6.75;;;15.20;28.00;;;;;;5068370;28;20232;-90
2021/03/04 12:26:21;;;;;;;14.57;6.55;;;15.30;28.10;;;;;;5592007;23;20238;-89
2021/03/04 12:38:36;;;;;;;15.15;6.32;;;15.60;28.30;;;;;;4988919;28;20200;-91
2021/03/04 12:41:03;;;;;;;17.92;7.03;;;15.70;28.40;;;;;;4999975;28;20298;-91
2021/03/04 12:43:32;;;;;;;19.42;6.78;;;16.00;28.60;;;;;;5012662;28;20591;-92
2021/03/04 12:46:00;;;;;;;12.70;6.07;;;16.00;26.90;;;;;;5005044;28;20223;-92
2021/03/04 12:48:36;;;;;;;20.30;7.03;;;15.80;28.50;;;;;;5008875;28;20227;-93
2021/03/04 12:53:51;;;;;;;17.45;6.93;;;15.50;28.30;;;;;;5012431;28;20195;-92
2021/03/04 12:56:24;;;;;;;12.20;7.05;;;15.40;28.20;;;;;;5011490;28;20234;-90
2021/03/04 12:58:52;;;;;;;19.67;6.65;;;15.10;28.00;;;;;;5027367;28;20563;-91
2021/03/04 13:01:19;;;;;;;22.83;6.93;;;15.10;28.00;;;;;;5015949;28;20619;-90
2021/03/04 13:03:45;;;;;;;13.57;6.30;;;15.20;28.00;;;;;;5022160;28;20231;-90
2021/03/04 13:06:19;;;;;;;23.20;6.82;;;15.10;28.00;;;;;;5028191;28;20278;-88
2021/03/04 13:09:05;;;;;;;15.80;6.90;;;15.10;28.00;;;;;;5016739;28;20247;-87
2021/03/04 13:11:32;;;;;;;19.65;6.85;;;15.20;28.00;;;;;;5012257;28;20279;-87
2021/03/04 13:13:58;;;;;;;14.43;6.80;;;15.30;28.10;;;;;;5017879;28;20345;-88
2021/03/04 13:16:26;;;;;;;14.18;6.28;;;15.50;28.30;;;;;;5014194;28;20223;-88
2021/03/04 13:18:57;;;;;;;18.65;6.88;;;15.50;28.30;;;;;;5013818;28;20257;-86
2021/03/04 13:21:30;;;;;;;23.55;6.72;;;15.30;28.10;;;;;;5019313;28;20223;-87
2021/03/04 13:24:00;;;;;;;16.30;6.75;;;15.30;28.10;;;;;;5009001;28;20231;-86